MAPA DE AEROPUERTO

INFORMACIÓN METAR y TAF

METAR FOR EFRO
ADDS - METARS form results

(1141 UTC 27 November 2021)
Data provider http://aviationweather.gov/metar/data/
 
METAR text: EFRO 271120Z AUTO 06007KT CAVOK M17/M19 Q1007
Conditions at: EFRO (ROVANIEMI (CIV/M, FI) observed 1120 UTC 27 November 2021
Temperature: -17.0°C ( 1°F)
Dewpoint: -19.0°C (-2°F) [RH = 84%]
Pressure (altimeter): 29.73 inches Hg (1007.0 mb)
Winds: from the ENE (60 degrees) at 8 MPH (7 knots; 3.6 m/s)
Visibility: 6 or more miles (10+ km)
Ceiling: ceiling and visibility are OK
Clouds: unknown
Weather: no significant weather observed at this time

METAR text: EFRO 271050Z AUTO 06007KT CAVOK M17/M18 Q1007
Conditions at: EFRO (ROVANIEMI (CIV/M, FI) observed 1050 UTC 27 November 2021
Temperature: -17.0°C ( 1°F)
Dewpoint: -18.0°C (-0°F) [RH = 92%]
Pressure (altimeter): 29.73 inches Hg (1007.0 mb)
Winds: from the ENE (60 degrees) at 8 MPH (7 knots; 3.6 m/s)
Visibility: 6 or more miles (10+ km)
Ceiling: ceiling and visibility are OK
Clouds: unknown
Weather: no significant weather observed at this time

Forecast for: EFRO (ROVANIEMI (CIV/M, FI)
Text: TAF EFRO 271127Z 2712/2812 06008KT CAVOK
Forecast period: 1200 UTC 27 November 2021 to 1200 UTC 28 November 2021
Forecast type: FROM: standard forecast or significant change
Winds: from the ENE (60 degrees) at 9 MPH (8 knots; 4.1 m/s)
Visibility: 6 or more miles (10+ km)
Ceiling: unknown
Clouds: missing
Weather: NSW  (no significant weather)
Text: PROB30 2715/2724 2000 BCFG BKN002
Forecast period: 1500 UTC 27 November 2021 to 0000 UTC 28 November 2021
Forecast type: PROBABLE: 30 percent likelihood of the following during this time
Visibility: 1.24 miles (2.00 km)
Ceiling: 200 feet AGL
Clouds: broken clouds at 200 feet AGL
Weather: BCFG  (patches of fog)
Text: TEMPO 2800/2812 6000 -SN
Forecast period: 0000 to 1200 UTC 28 November 2021
Forecast type: TEMPORARY: The following changes expected for less than half the time period
Visibility: 4 miles (6 km)
Ceiling: unknown
Clouds: missing
Weather: -SN  (light snow)